createdAt,value
2023-05-16T00:03:03.487Z,5.57
2023-05-16T00:06:06.097Z,7.03
2023-05-16T00:09:08.355Z,6.10
2023-05-16T00:12:11.464Z,5.55
2023-05-16T00:15:14.181Z,8.05
2023-05-16T00:18:17.014Z,6.15
2023-05-16T00:21:20.018Z,6.40
2023-05-16T00:24:23.998Z,5.75
2023-05-16T00:27:26.272Z,6.57
2023-05-16T00:30:30.605Z,6.78
2023-05-16T00:33:35.073Z,5.78
2023-05-16T00:36:37.465Z,5.70
2023-05-16T00:39:39.718Z,6.80
2023-05-16T00:42:41.860Z,7.32
2023-05-16T00:45:44.574Z,7.53
2023-05-16T00:48:46.800Z,7.85
2023-05-16T00:51:49.215Z,6.97
2023-05-16T00:54:52.056Z,6.50
2023-05-16T00:57:54.198Z,8.43
2023-05-16T01:00:59.200Z,5.07
2023-05-16T01:04:01.863Z,7.07
2023-05-16T01:07:04.173Z,5.53
2023-05-16T01:10:07.529Z,5.97
2023-05-16T01:13:45.913Z,6.00
2023-05-16T01:17:06.712Z,7.70
2023-05-16T01:20:25.932Z,6.90
2023-05-16T01:23:47.055Z,6.70
2023-05-16T01:26:51.821Z,5.35
2023-05-16T01:29:57.053Z,5.55
2023-05-16T01:32:59.507Z,6.60
2023-05-16T01:36:11.905Z,6.18
2023-05-16T01:39:42.548Z,5.82
2023-05-16T01:42:47.450Z,5.75
2023-05-16T01:45:56.059Z,6.38
2023-05-16T01:49:13.354Z,5.30
2023-05-16T01:52:42.953Z,5.47
2023-05-16T01:55:58.395Z,5.18
2023-05-16T01:59:02.386Z,5.28
2023-05-16T02:02:04.709Z,6.30
2023-05-16T02:05:07.233Z,6.30
2023-05-16T02:08:09.801Z,6.32
2023-05-16T02:11:12.138Z,5.75
2023-05-16T02:14:14.300Z,6.25
2023-05-16T02:17:16.429Z,6.22
2023-05-16T02:20:18.487Z,7.40
2023-05-16T02:23:20.704Z,5.80
2023-05-16T02:26:23.506Z,7.63
2023-05-16T02:29:25.585Z,7.50
2023-05-16T02:32:28.135Z,6.60
2023-05-16T02:35:30.342Z,6.45
2023-05-16T02:38:32.396Z,7.30
2023-05-16T02:41:34.785Z,7.93
2023-05-16T02:44:36.865Z,5.45
2023-05-16T02:47:38.989Z,5.55
2023-05-16T02:50:42.540Z,5.90
2023-05-16T02:53:44.708Z,6.73
2023-05-16T02:56:46.807Z,9.18
2023-05-16T02:59:49.065Z,6.75
2023-05-16T03:02:51.189Z,7.05
2023-05-16T03:05:53.420Z,6.72
2023-05-16T03:08:55.472Z,8.52
2023-05-16T03:11:57.702Z,9.80
2023-05-16T03:15:02.021Z,7.45
2023-05-16T03:18:04.443Z,9.07
2023-05-16T03:21:06.549Z,8.30
2023-05-16T03:24:10.006Z,6.93
2023-05-16T03:27:13.120Z,6.45
2023-05-16T03:30:16.449Z,6.55
2023-05-16T03:33:24.509Z,6.68
2023-05-16T03:36:27.824Z,7.57
2023-05-16T03:39:30.139Z,7.10
2023-05-16T03:42:35.119Z,6.18
2023-05-16T03:45:37.191Z,8.30
2023-05-16T03:48:39.308Z,7.57
2023-05-16T03:51:42.320Z,7.88
2023-05-16T03:54:44.595Z,6.68
2023-05-16T03:57:47.955Z,6.07
2023-05-16T04:00:50.088Z,7.95
2023-05-16T04:03:52.162Z,7.28
2023-05-16T04:06:54.276Z,7.93
2023-05-16T04:09:58.840Z,7.65
2023-05-16T04:13:02.652Z,7.40
2023-05-16T04:16:05.127Z,7.15
2023-05-16T04:19:08.495Z,7.25
2023-05-16T04:22:10.681Z,6.30
2023-05-16T04:25:13.434Z,7.50
2023-05-16T04:28:16.792Z,7.85
2023-05-16T04:31:18.945Z,8.05
2023-05-16T04:34:23.238Z,6.50
2023-05-16T04:37:25.308Z,6.38
2023-05-16T04:40:27.925Z,6.82
2023-05-16T04:43:30.582Z,6.72
2023-05-16T04:46:32.636Z,7.25
2023-05-16T04:49:35.776Z,7.82
2023-05-16T04:52:38.498Z,7.90
2023-05-16T04:55:41.757Z,9.40
2023-05-16T04:58:43.887Z,6.55
2023-05-16T05:01:46.013Z,7.00
2023-05-16T05:04:48.613Z,6.78
2023-05-16T05:07:50.909Z,6.05
2023-05-16T05:10:53.554Z,8.65
2023-05-16T05:13:55.843Z,5.78
2023-05-16T05:16:58.063Z,6.43
2023-05-16T05:20:02.688Z,8.13
2023-05-16T05:23:05.533Z,8.65
2023-05-16T05:26:07.688Z,7.13
2023-05-16T05:29:09.856Z,8.73
2023-05-16T05:32:12.623Z,8.15
2023-05-16T05:35:15.737Z,7.70
2023-05-16T05:38:17.898Z,9.10
2023-05-16T05:41:20.244Z,8.52
2023-05-16T05:44:22.595Z,8.65
2023-05-16T05:47:25.062Z,8.35
2023-05-16T05:50:27.543Z,7.78
2023-05-16T05:53:29.822Z,6.43
2023-05-16T05:56:32.115Z,7.57
2023-05-16T05:59:34.303Z,8.25
2023-05-16T06:02:37.092Z,6.13
2023-05-16T06:05:39.592Z,6.75
2023-05-16T06:08:41.880Z,6.13
2023-05-16T06:11:45.990Z,7.93
2023-05-16T06:14:48.190Z,7.15
2023-05-16T06:17:50.674Z,6.88
2023-05-16T06:20:53.497Z,8.77
2023-05-16T06:23:55.840Z,6.13
2023-05-16T06:26:58.304Z,6.75
2023-05-16T06:30:00.345Z,7.38
2023-05-16T06:33:02.663Z,7.93
2023-05-16T06:36:05.172Z,6.95
2023-05-16T06:39:07.861Z,6.28
2023-05-16T06:42:11.166Z,5.65
2023-05-16T06:45:13.475Z,6.47
2023-05-16T06:48:16.241Z,6.72
2023-05-16T06:51:18.431Z,7.15
2023-05-16T06:54:20.890Z,6.78
2023-05-16T06:57:24.056Z,7.47
2023-05-16T07:00:27.213Z,7.30
2023-05-16T07:03:29.771Z,8.98
2023-05-16T07:06:32.123Z,10.52
2023-05-16T07:09:34.468Z,9.55
2023-05-16T07:12:40.054Z,17.80
2023-05-16T07:15:42.208Z,18.15
2023-05-16T07:18:44.497Z,13.85
2023-05-16T07:21:47.009Z,12.90
2023-05-16T07:24:49.286Z,6.05
2023-05-16T07:27:51.496Z,9.52
2023-05-16T07:30:54.811Z,9.70
2023-05-16T07:33:57.560Z,8.27
2023-05-16T07:36:59.855Z,8.27
2023-05-16T07:40:02.906Z,6.38
2023-05-16T07:43:05.224Z,7.73
2023-05-16T07:46:07.781Z,8.02
2023-05-16T07:49:09.987Z,6.70
2023-05-16T07:52:12.426Z,6.22
2023-05-16T07:55:15.079Z,6.75
2023-05-16T07:58:17.326Z,6.60
2023-05-16T08:01:20.692Z,5.78
2023-05-16T08:04:22.891Z,5.88
2023-05-16T08:07:25.049Z,7.13
2023-05-16T08:10:27.643Z,5.75
2023-05-16T08:13:29.973Z,6.13
2023-05-16T08:16:32.846Z,5.75
2023-05-16T08:19:35.766Z,5.75
2023-05-16T08:22:37.884Z,4.95
2023-05-16T08:25:40.481Z,4.88
2023-05-16T08:28:43.402Z,4.68
2023-05-16T08:31:45.880Z,4.18
2023-05-16T08:34:48.291Z,3.83
2023-05-16T08:37:50.693Z,4.10
2023-05-16T08:40:52.789Z,3.95
2023-05-16T08:43:55.093Z,4.00
2023-05-16T08:46:57.935Z,4.13
2023-05-16T08:50:02.902Z,4.30
2023-05-16T08:53:09.904Z,3.40
2023-05-16T08:56:14.830Z,6.38
2023-05-16T08:59:17.789Z,4.38
2023-05-16T09:02:21.774Z,3.75
2023-05-16T09:05:24.396Z,3.75
2023-05-16T09:08:26.834Z,3.97
2023-05-16T09:11:29.522Z,4.57
2023-05-16T09:14:31.749Z,4.57
2023-05-16T09:17:43.128Z,4.22
2023-05-16T09:20:50.269Z,3.97
2023-05-16T09:24:06.191Z,3.70
2023-05-16T09:27:13.954Z,4.70
2023-05-16T09:30:19.359Z,4.68
2023-05-16T09:33:27.054Z,4.78
2023-05-16T09:36:29.412Z,3.78
2023-05-16T09:39:31.616Z,4.07
2023-05-16T09:42:34.234Z,3.92
2023-05-16T09:45:47.863Z,4.18
2023-05-16T09:48:52.068Z,5.07
2023-05-16T09:51:54.405Z,3.22
2023-05-16T09:54:56.522Z,4.70
2023-05-16T09:57:58.672Z,5.00
2023-05-16T10:01:01.545Z,3.65
2023-05-16T10:04:03.806Z,4.05
2023-05-16T10:07:10.067Z,4.28
2023-05-16T10:10:14.067Z,4.13
2023-05-16T10:13:29.076Z,4.05
2023-05-16T10:16:31.866Z,3.40
2023-05-16T10:19:38.899Z,3.97
2023-05-16T10:22:44.045Z,4.25
2023-05-16T10:25:49.145Z,4.15
2023-05-16T10:28:54.808Z,4.05
2023-05-16T10:31:58.383Z,3.28
2023-05-16T10:35:03.274Z,3.88
2023-05-16T10:38:08.076Z,4.05
2023-05-16T10:41:11.362Z,3.97
2023-05-16T10:44:16.237Z,5.45
2023-05-16T10:47:21.933Z,3.67
2023-05-16T10:50:57.458Z,3.88
2023-05-16T10:57:24.067Z,3.95
2023-05-16T11:00:26.286Z,5.25
2023-05-16T11:03:29.205Z,3.88
2023-05-16T11:06:43.984Z,3.80
2023-05-16T11:09:46.908Z,4.72
2023-05-16T11:12:50.794Z,4.55
2023-05-16T11:16:29.006Z,4.55
2023-05-16T11:19:36.194Z,2.85
2023-05-16T11:22:41.544Z,3.70
2023-05-16T11:25:46.192Z,4.05
2023-05-16T11:28:50.825Z,3.75
2023-05-16T11:31:53.625Z,3.35
2023-05-16T11:34:56.735Z,3.78
2023-05-16T11:37:58.813Z,3.67
2023-05-16T11:41:08.193Z,3.50
2023-05-16T11:44:12.699Z,3.58
2023-05-16T11:47:15.033Z,3.63
2023-05-16T11:50:20.118Z,4.20
2023-05-16T11:53:22.690Z,3.72
2023-05-16T11:56:25.840Z,4.07
2023-05-16T11:59:28.340Z,3.47
2023-05-16T12:02:30.622Z,2.90
2023-05-16T12:05:34.231Z,3.53
2023-05-16T12:08:37.065Z,2.92
2023-05-16T12:11:44.118Z,4.13
2023-05-16T12:14:46.619Z,2.80
2023-05-16T12:17:49.239Z,2.55
2023-05-16T12:20:52.495Z,3.42
2023-05-16T12:23:57.983Z,3.73
2023-05-16T12:27:00.195Z,3.42
2023-05-16T12:30:02.416Z,2.55
2023-05-16T12:33:13.587Z,2.33
2023-05-16T12:36:17.305Z,3.90
2023-05-16T12:39:20.526Z,2.90
2023-05-16T12:42:22.649Z,3.28
2023-05-16T12:45:27.978Z,3.03
2023-05-16T12:48:37.210Z,3.85
2023-05-16T12:51:41.161Z,2.42
2023-05-16T12:54:43.405Z,2.42
2023-05-16T12:57:48.010Z,2.75
2023-05-16T13:00:50.266Z,2.80
2023-05-16T13:03:52.498Z,3.38
2023-05-16T13:06:59.203Z,2.90
2023-05-16T13:10:02.195Z,2.92
2023-05-16T13:13:04.697Z,2.58
2023-05-16T13:16:07.160Z,2.28
2023-05-16T13:19:09.526Z,3.47
2023-05-16T13:22:11.944Z,3.15
2023-05-16T13:25:18.014Z,2.53
2023-05-16T13:28:20.291Z,4.22
2023-05-16T13:31:22.884Z,3.08
2023-05-16T13:34:25.427Z,3.05
2023-05-16T13:37:27.659Z,2.83
2023-05-16T13:40:30.109Z,3.20
2023-05-16T13:43:32.391Z,3.38
2023-05-16T13:46:35.190Z,2.58
2023-05-16T13:49:37.957Z,2.97
2023-05-16T13:52:40.585Z,3.33
2023-05-16T13:55:42.969Z,5.43
2023-05-16T13:58:59.740Z,3.08
2023-05-16T14:02:06.253Z,2.47
2023-05-16T14:05:09.669Z,3.35
2023-05-16T14:08:11.849Z,2.20
2023-05-16T14:11:14.119Z,2.35
2023-05-16T14:14:17.468Z,2.42
2023-05-16T14:17:20.800Z,2.35
2023-05-16T14:20:23.183Z,2.40
2023-05-16T14:23:25.520Z,2.95
2023-05-16T14:26:27.701Z,2.85
2023-05-16T14:29:30.430Z,2.85
2023-05-16T14:32:33.696Z,3.00
2023-05-16T14:35:38.495Z,3.05
2023-05-16T14:38:41.868Z,3.75
2023-05-16T14:41:44.411Z,5.38
2023-05-16T14:44:46.891Z,5.22
2023-05-16T14:47:49.295Z,4.85
2023-05-16T14:50:52.153Z,4.57
2023-05-16T14:53:54.788Z,5.50
2023-05-16T14:56:57.005Z,5.45
2023-05-16T14:59:59.200Z,5.30
2023-05-16T15:03:01.517Z,5.72
2023-05-16T15:06:07.832Z,4.47
2023-05-16T15:09:10.101Z,4.50
2023-05-16T15:12:12.493Z,4.65
2023-05-16T15:15:16.600Z,5.47
2023-05-16T15:18:18.986Z,5.78
2023-05-16T15:21:21.205Z,5.47
2023-05-16T15:24:23.349Z,4.15
2023-05-16T15:27:26.273Z,4.65
2023-05-16T15:30:29.713Z,4.45
2023-05-16T15:33:32.752Z,5.88
2023-05-16T15:36:35.303Z,3.72
2023-05-16T15:39:37.701Z,4.13
2023-05-16T15:42:42.458Z,3.72
2023-05-16T15:45:45.575Z,3.70
2023-05-16T15:48:47.800Z,4.32
2023-05-16T15:51:55.232Z,3.78
2023-05-16T15:54:57.621Z,4.03
2023-05-16T15:57:59.833Z,3.80
2023-05-16T16:01:03.318Z,3.97
2023-05-16T16:04:05.827Z,5.00
2023-05-16T16:07:08.231Z,4.63
2023-05-16T16:10:12.806Z,4.82
2023-05-16T16:13:14.996Z,5.22
2023-05-16T16:16:18.248Z,4.97
2023-05-16T16:19:20.503Z,4.63
2023-05-16T16:22:23.126Z,4.00
2023-05-16T16:25:25.874Z,4.13
2023-05-16T16:28:28.930Z,3.65
2023-05-16T16:31:31.104Z,3.87
2023-05-16T16:34:35.295Z,4.45
2023-05-16T16:37:37.569Z,3.87
2023-05-16T16:40:40.189Z,3.90
2023-05-16T16:43:42.376Z,3.28
2023-05-16T16:46:44.850Z,4.15
2023-05-16T16:49:46.936Z,2.92
2023-05-16T16:52:49.157Z,3.70
2023-05-16T16:55:52.026Z,3.45
2023-05-16T16:58:54.918Z,2.97
2023-05-16T17:01:57.226Z,3.00
2023-05-16T17:05:00.706Z,3.85
2023-05-16T17:08:03.156Z,5.25
2023-05-16T17:11:05.952Z,2.47
2023-05-16T17:14:10.769Z,3.63
2023-05-16T17:17:15.570Z,3.28
2023-05-16T17:20:17.708Z,2.70
2023-05-16T17:23:20.367Z,3.72
2023-05-16T17:26:22.918Z,2.92
2023-05-16T17:29:25.156Z,3.83
2023-05-16T17:32:27.526Z,3.45
2023-05-16T17:35:30.188Z,4.15
2023-05-16T17:38:32.821Z,3.58
2023-05-16T17:41:35.593Z,2.20
2023-05-16T17:44:38.068Z,3.93
2023-05-16T17:47:40.942Z,2.85
2023-05-16T17:50:43.729Z,3.20
2023-05-16T17:53:47.174Z,2.70
2023-05-16T17:56:51.029Z,2.97
2023-05-16T17:59:53.467Z,3.15
2023-05-16T18:02:56.053Z,3.60
2023-05-16T18:05:58.418Z,3.05
2023-05-16T18:09:01.473Z,3.47
2023-05-16T18:12:03.868Z,3.23
2023-05-16T18:15:07.707Z,3.30
2023-05-16T18:18:10.421Z,3.53
2023-05-16T18:21:12.706Z,3.67
2023-05-16T18:24:16.144Z,3.55
2023-05-16T18:27:18.301Z,3.53
2023-05-16T18:30:21.081Z,2.78
2023-05-16T18:33:23.563Z,3.10
2023-05-16T18:36:25.918Z,3.20
2023-05-16T18:39:28.143Z,3.72
2023-05-16T18:42:30.555Z,3.08
2023-05-16T18:45:33.778Z,2.50
2023-05-16T18:48:36.257Z,2.40
2023-05-16T18:51:38.929Z,3.95
2023-05-16T18:54:41.177Z,3.13
2023-05-16T18:57:44.154Z,3.53
2023-05-16T19:00:47.145Z,3.60
2023-05-16T19:03:49.905Z,3.27
2023-05-16T19:06:56.277Z,2.70
2023-05-16T19:09:59.702Z,2.65
2023-05-16T19:13:07.083Z,3.05
2023-05-16T19:16:09.354Z,2.55
2023-05-16T19:19:11.539Z,2.97
2023-05-16T19:22:13.655Z,4.13
2023-05-16T19:25:16.081Z,2.85
2023-05-16T19:28:18.342Z,3.88
2023-05-16T19:31:21.135Z,2.83
2023-05-16T19:37:28.792Z,3.90
2023-05-16T19:40:32.626Z,2.75
2023-05-16T19:43:35.026Z,3.30
2023-05-16T19:46:38.456Z,2.55
2023-05-16T19:49:41.214Z,3.00
2023-05-16T19:52:43.696Z,2.92
2023-05-16T19:55:48.025Z,3.55
2023-05-16T19:58:50.181Z,2.97
2023-05-16T20:01:52.529Z,4.03
2023-05-16T20:04:54.884Z,3.25
2023-05-16T20:07:57.276Z,3.28
2023-05-16T20:10:59.844Z,3.83
2023-05-16T20:14:02.049Z,3.60
2023-05-16T20:17:04.286Z,2.75
2023-05-16T20:20:08.925Z,3.30
2023-05-16T20:23:11.214Z,3.65
2023-05-16T20:26:15.006Z,2.42
2023-05-16T20:29:17.137Z,2.45
2023-05-16T20:32:20.201Z,2.97
2023-05-16T20:35:22.373Z,3.35
2023-05-16T20:38:26.540Z,2.58
2023-05-16T20:41:28.775Z,3.75
2023-05-16T20:44:31.033Z,3.28
2023-05-16T20:47:33.177Z,3.65
2023-05-16T20:50:36.440Z,2.97
2023-05-16T20:53:38.741Z,3.17
2023-05-16T20:56:41.130Z,2.80
2023-05-16T20:59:43.343Z,2.55
2023-05-16T21:03:02.714Z,2.75
2023-05-16T21:06:06.941Z,3.03
2023-05-16T21:09:09.365Z,3.35
2023-05-16T21:12:11.854Z,3.00
2023-05-16T21:15:13.968Z,2.80
2023-05-16T21:18:18.673Z,3.28
2023-05-16T21:21:21.838Z,2.85
2023-05-16T21:24:24.124Z,4.07
2023-05-16T21:27:26.248Z,3.45
2023-05-16T21:30:28.424Z,3.50
2023-05-16T21:33:30.617Z,4.00
2023-05-16T21:36:33.654Z,4.38
2023-05-16T21:39:36.036Z,3.70
2023-05-16T21:42:38.380Z,3.63
2023-05-16T21:45:40.856Z,2.92
2023-05-16T21:48:43.129Z,2.83
2023-05-16T21:51:45.620Z,2.47
2023-05-16T21:54:52.000Z,2.90
2023-05-16T21:57:54.564Z,2.15
2023-05-16T22:00:56.593Z,2.22
2023-05-16T22:03:59.180Z,2.83
2023-05-16T22:07:01.755Z,2.58
2023-05-16T22:10:05.438Z,2.65
2023-05-16T22:16:11.249Z,2.10
2023-05-16T22:19:15.547Z,1.80
2023-05-16T22:25:19.892Z,2.10
2023-05-16T22:28:22.197Z,2.80
2023-05-16T22:31:24.702Z,3.72
2023-05-16T22:34:26.947Z,4.45
2023-05-16T22:37:29.398Z,2.80
2023-05-16T22:40:31.680Z,3.05
2023-05-16T22:43:36.381Z,3.05
2023-05-16T22:46:38.746Z,2.03
2023-05-16T22:49:47.724Z,3.10
2023-05-16T22:52:50.329Z,3.33
2023-05-16T22:55:52.523Z,2.88
2023-05-16T22:58:54.833Z,2.08
2023-05-16T23:01:57.319Z,2.00
2023-05-16T23:04:59.503Z,2.08
2023-05-16T23:08:03.346Z,3.30
2023-05-16T23:11:05.951Z,2.35
2023-05-16T23:14:08.103Z,2.67
2023-05-16T23:17:10.352Z,2.63
2023-05-16T23:20:17.567Z,2.47
2023-05-16T23:23:19.685Z,1.92
2023-05-16T23:26:22.229Z,2.33
2023-05-16T23:29:24.466Z,3.60
2023-05-16T23:32:26.963Z,2.30
2023-05-16T23:35:29.633Z,2.83
2023-05-16T23:38:31.987Z,2.42
2023-05-16T23:41:34.374Z,3.25
2023-05-16T23:44:37.105Z,3.17
2023-05-16T23:47:39.876Z,2.70
2023-05-16T23:50:42.027Z,2.33
2023-05-16T23:53:44.107Z,2.53
2023-05-16T23:56:46.491Z,2.17
2023-05-16T23:59:48.710Z,2.38
